logo
Rechercher aéroport 
image banner adimage banner adimage banner ad
image banner ad

YWYY - Wynyard

Situé à Wynyard, Australia

ICAO - YWYY, IATA - BWT

Données fournies par Airmate  

Information générale

Coordonnées: S40°59'56" E145°43'52"
Élévation : 62 feet MSL.
 
Voir autres Aéroports à Tasmania

Données opérationnelles

Special qualification required
Heure actuelle UTC:
Heure actuelle locale:
Météo à : - ( 0 km )
METAR: UUOK 172114Z AUTO 23005MPS 9999 // ///008/// 19/18 Q1009 RMK QFE739/0986
Voir NOTAMs / SUP AIP / TFR affectant cet aéroport [VIEW]
Fréquences de communication: [VIEW]

Pistes:

Identifiant RWYQFULongueur (ft)Largeur (ft)SurfaceLDA (ft)
0565°271359GVL
23245°271359GVL
0999°541398ASP
27279°541398ASP

Coordonnées de l'aéroport

Adresse: Wynyard Australia

Vue satellite de YWYY